VEILLE D'ORAGES VIOLENTS EN VIGUEUR

Rapports Métar

 

CWEW - L'assomption, Quebec, Canada
Distance de la station: SSE 46km
Mise à jour: 19/09/2017 09:00

 Vents de NNE
Vent: NNE 4 km/h
Température: 17°C
2017/09/19 13:00 CWEW 191300Z AUTO 03002KT 17/ RMK AO1 SLP199 T0165 51008
CWHM - Varennes, Quebec, Canada
Distance de la station: SSE 58km
Mise à jour: 25/10/2016 10:00
PAS à jour

 Vents de O
Vent: O 19 km/h, Rafale: 28 km/h
Température: 4°C
Refroidissement éolien: 0°C
Point de rosée: -2°C
Humidité: 65%
2016/10/25 14:00 CWHM 251400Z AUTO 28010G15KT 04/M02 RMK AO1 PK WND 28018/1302 T00391017
 
CWBS - Lac St Pierre (a, Quebec, Canada
Distance de la station: E 60km
Mise à jour: 19/09/2017 09:00

 Vents de NE
Vent: NE 11 km/h
Température: 17°C
Point de rosée: 17°C
Humidité: 100%
2017/09/19 13:00 CWBS 191300Z AUTO 04006KT 17/17 RMK AO1 T01680167
CYMX - Montreal/Mirabel, Quebec, Canada
Distance de la station: SSO 62km
Mise à jour: 19/09/2017 09:00
Fog, couvert
Fog, couvert
 Vents de NNE
Vent: NNE 6 km/h
Température: 17°C
Point de rosée: 17°C
Humidité: 100%
Baromètre: 1019.3 hPa
Résumé: Fog
Nuages: couvert
Visibilité: 2 km
Détail des nuages: couvert 61 m
2017/09/19 13:00 CYMX 191300Z 03003KT 350V100 1/2SM R06/2400FT/N R11/2600V5000FT/N FG VV002 17/17 A3010 RMK FG8 VIS VRB 3/8-5/8 SLP196 DENSITY ALT 400FT
 
CWJT - St Jovite (autob, Quebec, Canada
Distance de la station: OSO 64km
Mise à jour: 19/09/2017 08:00
PAS à jour

 Vents de calm
Vent: calme
Température: 13°C
Point de rosée: 13°C
Humidité: 100%
2017/09/19 12:00 CWJT 191200Z AUTO 00000KT 13/13 RMK AO1 SLP187 T01310131 53005
CWTA - Mc Tavish (aut), Quebec, Canada
Distance de la station: S 77km
Mise à jour: 19/09/2017 09:00

 Vents de S
Vent: S 7 km/h
Température: 21°C
Point de rosée: 17°C
Humidité: 78%
2017/09/19 13:00 CWTA 191300Z AUTO 19004KT 21/17 RMK AO1 SLP192 T02080167 51008
 
CYHU - Saint Hubert Arp, Quebec, Canada
Distance de la station: SSE 77km
Mise à jour: 19/09/2017 09:00
partiellement nuageux
partiellement nuageux
 Vents de S
Vent: S 15 km/h
Température: 21°C
Point de rosée: 17°C
Humidité: 78%
Baromètre: 1019.3 hPa
Nuages: partiellement nuageux
Visibilité: 14 km
Détail des nuages: partiellement nuageux 3658 m
2017/09/19 13:00 CYHU 191300Z AUTO 18008KT 9SM SCT120 21/17 A3010 RMK SLP193 DENSITY ALT 500FT
CYUL - Montreal/Dorval, Quebec, Canada
Distance de la station: S 80km
Mise à jour: 19/09/2017 09:00
nuageux
nuageux
 Vents de SE
Vent: SE 9 km/h
Température: 21°C
Point de rosée: 18°C
Humidité: 83%
Baromètre: 1019 hPa
Nuages: nuageux
Visibilité: 24 km
Détail des nuages: Few Clouds 2743 m
partiellement nuageux 3658 m
nuageux 7315 m
2017/09/19 13:00 CYUL 191300Z 13005KT 110V190 15SM FEW090 SCT120 BKN240 21/18 A3009 RMK AC1AC2CI2 SLP191 DENSITY ALT 700FT
 
CWNQ - Nicolet (autob), Quebec, Canada
Distance de la station: E 81km
Mise à jour: 19/09/2017 19:00

 Vents de NE
Vent: NE 4 km/h
Température: 19°C
Point de rosée: 17°C
Humidité: 88%
2017/09/19 23:00 CWNQ 192300Z AUTO 04002KT 19/17 RMK AO1 SLP186 T01940173 55002
CWVQ - Ste Anne De Bell, Quebec, Canada
Distance de la station: S 87km
Mise à jour: 19/09/2017 09:00

 Vents de NNE
Vent: NNE 2 km/h
Température: 20°C
Point de rosée: 20°C
Humidité: 100%
2017/09/19 13:00 CWVQ 191300Z AUTO 03001KT 20/20 RMK AO1 SLP190 T02030199 51009
 
CWTY - Trois Rivieres, Quebec, Canada
Distance de la station: ENE 93km
Mise à jour: 19/09/2017 09:00

 Vents de NE
Vent: NE 7 km/h
Température: 17°C
Point de rosée: 15°C
Humidité: 88%
2017/09/19 13:00 CWTY 191300Z AUTO 05004KT 17/15 RMK AO1 SLP195 T01680153 51006
CXSH - Shawinigan, Quebec, Canada
Distance de la station: ENE 97km
Mise à jour: 19/09/2017 09:00

 Vents de NNE
Vent: NNE 6 km/h
Température: 15°C
Point de rosée: 14°C
Humidité: 94%
2017/09/19 13:00 CXSH 191300Z AUTO 03003KT 15/14 RMK AO1 SLP176 T01490135 51007
 
CWIZ - L'acadie, Quebec, Canada
Distance de la station: SSE 104km
Mise à jour: 19/09/2017 09:00

 Vents de SSE
Vent: SSE 15 km/h
Température: 21°C
Point de rosée: 16°C
Humidité: 73%
2017/09/19 13:00 CWIZ 191300Z AUTO 16008KT 21/16 RMK AO1 T02090155
CWIT - St Clothilde (a, Quebec, Canada
Distance de la station: S 113km
Mise à jour: 19/09/2017 09:00

 Vents de SSE
Vent: SSE 11 km/h
Température: 21°C
Point de rosée: 18°C
Humidité: 83%
2017/09/19 13:00 CWIT 191300Z AUTO 15006KT 21/18 RMK AO1 SLP186 T02070175 51005
 
CMGB - Granby, Quebec, Canada
Distance de la station: SE 116km
Mise à jour: 19/09/2017 09:00

 Vents de SSE
Vent: SSE 7 km/h
Température: 21°C
Point de rosée: 15°C
Humidité: 69%
2017/09/19 13:00 CMGB 191300Z AUTO 16004KT 21/15 RMK AO1 SLP193 T02110149 51005
CWBZ - St Anicet, Quebec, Canada
Distance de la station: SSO 127km
Mise à jour: 19/09/2017 09:00

 Vents de ENE
Vent: ENE 4 km/h
Température: 20°C
Point de rosée: 20°C
Humidité: 100%
2017/09/19 13:00 CWBZ 191300Z AUTO 07002KT 20/20 RMK AO1 SLP186 T02020198 51010
 
CWHQ - Deschambaults, Quebec, Canada
Distance de la station: ENE 144km
Mise à jour: 19/09/2017 09:00

 Vents de E
Vent: E 4 km/h
Température: 15°C
Point de rosée: 15°C
Humidité: 100%
2017/09/19 13:00 CWHQ 191300Z AUTO 09002KT 15/15 RMK AO1 T01540152
CWFQ - Frelighsburg, Quebec, Canada
Distance de la station: SSE 145km
Mise à jour: 19/09/2017 09:00

 Vents de SSE
Vent: SSE 11 km/h
Température: 20°C
Point de rosée: 16°C
Humidité: 78%
2017/09/19 13:00 CWFQ 191300Z AUTO 15006KT 20/16 RMK AO1 SLP195 T02030160 51002
 
KFSO - Highgate, Vermont, USA
Distance de la station: SSE 147km
Mise à jour: 19/09/2017 09:15
clair
clair
 Vents de S
Vent: S 7 km/h
Température: 22°C
Point de rosée: 17°C
Humidité: 73%
Baromètre: 1019.6 hPa
Nuages: clair
Visibilité: 16 km
2017/09/19 13:15 KFSO 191315Z AUTO 18004KT 10SM CLR 22/17 A3011 RMK AO2 T02220165
CWDQ - La Tuque, Quebec, Canada
Distance de la station: NNE 154km
Mise à jour: 19/09/2017 09:00

 Vents de S
Vent: S 7 km/h
Température: 17°C
Point de rosée: 16°C
Humidité: 94%
2017/09/19 13:00 CWDQ 191300Z AUTO 18004KT 17/16 RMK AO1 SLP197 T01720161 51006